Oakbrook, Washington
Current Conditions -  °F | °C
As of 12:15 AM on Thursday 27 Nov 2014 (Local Time) from KTCM Reporting Station
Light Rain Light Rain  
Wind Chill: 16°   Ceiling: 6500
Heat Index: 16°   Visibility: 10mi
Dew Point:   Wind: 9mph
Humidity: 52%   Direction: 200°SSW
Pressure: 29.89"   Gusts: NA
Location:  47.1809°N, 122.548°W
Report Text: KTCM 270815Z AUTO 20008KT 10SM -RA OVC065 16/06 A2989 RMK AO2 RAB0815 $
Loading
Personal Weather Stations






























Interactive Weather Map New forecast layout! Learn more

10-Day Weather Forecast

Advertisements
Track Severe Weather on mobile